HBLJK LFDH-LFDH
Flight info
| Callsign | HBLJK |
|---|---|
| Flight time | N/A |
| Altitude | 9000 |
| Route | SULIT STAY1/0030 SULIT LMT |
| Aircraft | DA42/L-SABDFGRYZ/S |
Departure
| Time | 2026-04-15 19:19 |
|---|---|
| Airport | Auch Gers Airfield (LFDH) |
Arrival
| Time | N/A |
|---|---|
| Airport | Auch Gers Airfield (LFDH) |
| Time | Latitude | Longitude | Altitude | Speed | Heading |
|---|---|---|---|---|---|
| 2026-04-15 18:48 | 43.68729 | 0.60210 | 408 ft | 0 kts | 93° |
| 2026-04-15 19:05 | 43.68704 | 0.60211 | 407 ft | 6 kts | 218° |
| 2026-04-15 19:05 | 43.68699 | 0.60140 | 409 ft | 9 kts | 273° |
| 2026-04-15 19:05 | 43.68700 | 0.60113 | 409 ft | 0 kts | 276° |
| 2026-04-15 19:16 | 43.68702 | 0.60081 | 410 ft | 7 kts | 276° |
| 2026-04-15 19:16 | 43.68717 | 0.60016 | 411 ft | 9 kts | 328° |
| 2026-04-15 19:16 | 43.68800 | 0.60014 | 411 ft | 17 kts | 4° |
| 2026-04-15 19:17 | 43.68936 | 0.60026 | 411 ft | 21 kts | 3° |
| 2026-04-15 19:17 | 43.69080 | 0.60039 | 410 ft | 21 kts | 5° |
| 2026-04-15 19:17 | 43.69187 | 0.60068 | 407 ft | 10 kts | 33° |
| 2026-04-15 19:17 | 43.69203 | 0.60049 | 407 ft | 4 kts | 190° |
| 2026-04-15 19:18 | 43.69199 | 0.60049 | 407 ft | 0 kts | 181° |
| 2026-04-15 19:18 | 43.69140 | 0.60045 | 408 ft | 35 kts | 185° |
| 2026-04-15 19:18 | 43.68088 | 0.59955 | 595 ft | 88 kts | 184° |
| 2026-04-15 19:19 | 43.67475 | 0.59888 | 847 ft | 91 kts | 184° |
| 2026-04-15 19:19 | 43.66843 | 0.59822 | 1156 ft | 91 kts | 184° |
| 2026-04-15 19:19 | 43.66305 | 0.60189 | 1437 ft | 96 kts | 117° |
| 2026-04-15 19:19 | 43.65972 | 0.61015 | 1693 ft | 103 kts | 119° |
| 2026-04-15 19:20 | 43.65591 | 0.61909 | 1883 ft | 110 kts | 120° |
| 2026-04-15 19:20 | 43.65199 | 0.62821 | 2142 ft | 111 kts | 120° |
| 2026-04-15 19:20 | 43.64808 | 0.63737 | 2424 ft | 111 kts | 120° |
| 2026-04-15 19:20 | 43.64420 | 0.64642 | 2712 ft | 111 kts | 121° |
| 2026-04-15 19:21 | 43.64028 | 0.65561 | 2991 ft | 111 kts | 121° |
| 2026-04-15 19:21 | 43.63635 | 0.66482 | 3282 ft | 112 kts | 120° |
| 2026-04-15 19:21 | 43.63241 | 0.67407 | 3565 ft | 112 kts | 120° |
| 2026-04-15 19:21 | 43.62846 | 0.68335 | 3851 ft | 112 kts | 120° |
| 2026-04-15 19:22 | 43.62449 | 0.69267 | 4142 ft | 112 kts | 121° |
| 2026-04-15 19:22 | 43.62053 | 0.70198 | 4429 ft | 113 kts | 121° |
| 2026-04-15 19:22 | 43.61654 | 0.71133 | 4720 ft | 113 kts | 121° |
| 2026-04-15 19:22 | 43.61255 | 0.72069 | 5006 ft | 114 kts | 121° |
| 2026-04-15 19:23 | 43.60810 | 0.73109 | 5007 ft | 137 kts | 121° |
| 2026-04-15 19:23 | 43.60302 | 0.74293 | 5007 ft | 149 kts | 121° |
| 2026-04-15 19:23 | 43.59765 | 0.75551 | 5005 ft | 155 kts | 121° |
| 2026-04-15 19:23 | 43.59212 | 0.76849 | 5003 ft | 159 kts | 121° |
| 2026-04-15 19:24 | 43.58645 | 0.78178 | 5007 ft | 162 kts | 121° |
| 2026-04-15 19:24 | 43.58071 | 0.79524 | 5007 ft | 163 kts | 121° |
| 2026-04-15 19:24 | 43.57493 | 0.80878 | 5010 ft | 164 kts | 121° |
| 2026-04-15 19:24 | 43.56911 | 0.82237 | 5009 ft | 165 kts | 121° |
| 2026-04-15 19:25 | 43.56329 | 0.83597 | 5009 ft | 165 kts | 121° |
| 2026-04-15 19:25 | 43.55750 | 0.84963 | 5008 ft | 165 kts | 121° |
| 2026-04-15 19:25 | 43.55170 | 0.86325 | 5012 ft | 165 kts | 121° |
| 2026-04-15 19:25 | 43.54581 | 0.87684 | 5012 ft | 165 kts | 121° |
| 2026-04-15 19:26 | 43.53995 | 0.89046 | 5012 ft | 165 kts | 121° |
| 2026-04-15 19:26 | 43.53410 | 0.90407 | 5011 ft | 165 kts | 121° |
| 2026-04-15 19:26 | 43.52827 | 0.91765 | 5009 ft | 165 kts | 121° |
| 2026-04-15 19:26 | 43.52244 | 0.93123 | 5009 ft | 165 kts | 121° |
| 2026-04-15 19:27 | 43.51660 | 0.94485 | 5009 ft | 165 kts | 121° |
| 2026-04-15 19:27 | 43.51076 | 0.95844 | 5008 ft | 165 kts | 121° |
| 2026-04-15 19:27 | 43.50492 | 0.97202 | 5010 ft | 165 kts | 121° |
| 2026-04-15 19:27 | 43.49906 | 0.98564 | 5009 ft | 165 kts | 121° |
| 2026-04-15 19:28 | 43.49320 | 0.99925 | 5009 ft | 165 kts | 121° |
| 2026-04-15 19:28 | 43.48743 | 1.01265 | 5009 ft | 165 kts | 121° |
| 2026-04-15 19:28 | 43.48158 | 1.02623 | 5009 ft | 165 kts | 121° |
| 2026-04-15 19:28 | 43.47573 | 1.03980 | 5008 ft | 165 kts | 121° |
| 2026-04-15 19:29 | 43.46988 | 1.05336 | 5012 ft | 165 kts | 121° |
| 2026-04-15 19:29 | 43.46404 | 1.06692 | 5009 ft | 165 kts | 121° |
| 2026-04-15 19:29 | 43.45817 | 1.08051 | 5009 ft | 165 kts | 121° |
| 2026-04-15 19:29 | 43.45231 | 1.09409 | 5009 ft | 165 kts | 121° |
| 2026-04-15 19:30 | 43.44646 | 1.10764 | 5007 ft | 165 kts | 121° |
| 2026-04-15 19:30 | 43.44061 | 1.12116 | 5007 ft | 164 kts | 121° |
| 2026-04-15 19:30 | 43.43477 | 1.13467 | 5013 ft | 164 kts | 121° |
| 2026-04-15 19:30 | 43.42892 | 1.14819 | 5016 ft | 165 kts | 120° |
| 2026-04-15 19:31 | 43.42300 | 1.16186 | 5012 ft | 167 kts | 121° |
| 2026-04-15 19:31 | 43.41705 | 1.17561 | 5014 ft | 168 kts | 121° |
| 2026-04-15 19:31 | 43.41108 | 1.18940 | 5013 ft | 168 kts | 121° |
| 2026-04-15 19:31 | 43.40508 | 1.20324 | 5015 ft | 168 kts | 121° |
| 2026-04-15 19:32 | 43.39909 | 1.21706 | 5014 ft | 168 kts | 121° |
| 2026-04-15 19:32 | 43.39309 | 1.23089 | 5012 ft | 168 kts | 121° |
| 2026-04-15 19:32 | 43.38715 | 1.24478 | 5008 ft | 168 kts | 117° |
| 2026-04-15 19:32 | 43.38425 | 1.26017 | 5003 ft | 167 kts | 89° |
| 2026-04-15 19:33 | 43.38484 | 1.27603 | 5007 ft | 166 kts | 83° |
| 2026-04-15 19:33 | 43.38575 | 1.29185 | 4985 ft | 167 kts | 82° |
| 2026-04-15 19:33 | 43.38692 | 1.30808 | 4853 ft | 173 kts | 82° |
| 2026-04-15 19:33 | 43.38815 | 1.32466 | 4722 ft | 175 kts | 82° |
| 2026-04-15 19:34 | 43.38939 | 1.34137 | 4592 ft | 176 kts | 82° |
| 2026-04-15 19:34 | 43.39065 | 1.35810 | 4459 ft | 176 kts | 82° |
| 2026-04-15 19:34 | 43.39191 | 1.37488 | 4334 ft | 177 kts | 82° |
| 2026-04-15 19:34 | 43.39316 | 1.39166 | 4204 ft | 176 kts | 82° |
| 2026-04-15 19:35 | 43.39442 | 1.40840 | 4076 ft | 176 kts | 82° |
| 2026-04-15 19:35 | 43.39568 | 1.42514 | 3949 ft | 176 kts | 82° |
| 2026-04-15 19:35 | 43.39690 | 1.44163 | 3826 ft | 176 kts | 82° |
| 2026-04-15 19:35 | 43.39813 | 1.45831 | 3699 ft | 175 kts | 82° |
| 2026-04-15 19:36 | 43.39936 | 1.47501 | 3577 ft | 176 kts | 82° |
| 2026-04-15 19:36 | 43.40059 | 1.49193 | 3448 ft | 175 kts | 82° |
| 2026-04-15 19:36 | 43.40179 | 1.50835 | 3321 ft | 175 kts | 82° |
| 2026-04-15 19:36 | 43.40326 | 1.52492 | 3185 ft | 174 kts | 72° |
| 2026-04-15 19:37 | 43.40975 | 1.53808 | 3046 ft | 164 kts | 31° |
| 2026-04-15 19:37 | 43.42004 | 1.54286 | 3013 ft | 152 kts | 4° |
| 2026-04-15 19:37 | 43.43043 | 1.54469 | 2998 ft | 149 kts | 2° |
| 2026-04-15 19:37 | 43.44061 | 1.54528 | 2986 ft | 144 kts | 344° |
| 2026-04-15 19:38 | 43.45016 | 1.54147 | 2995 ft | 142 kts | 340° |
| 2026-04-15 19:38 | 43.45915 | 1.53613 | 2999 ft | 140 kts | 326° |
| 2026-04-15 19:38 | 43.46723 | 1.52875 | 2995 ft | 135 kts | 323° |
| 2026-04-15 19:38 | 43.47448 | 1.52163 | 2991 ft | 122 kts | 322° |
| 2026-04-15 19:39 | 43.48114 | 1.51496 | 2988 ft | 115 kts | 321° |
| 2026-04-15 19:39 | 43.48739 | 1.50851 | 2993 ft | 110 kts | 321° |
| 2026-04-15 19:39 | 43.49345 | 1.50222 | 2995 ft | 107 kts | 321° |
| 2026-04-15 19:39 | 43.49935 | 1.49610 | 2994 ft | 106 kts | 321° |
| 2026-04-15 19:40 | 43.50521 | 1.49002 | 2986 ft | 105 kts | 321° |
| 2026-04-15 19:40 | 43.51090 | 1.48414 | 3005 ft | 98 kts | 321° |
| 2026-04-15 19:40 | 43.51626 | 1.47859 | 2991 ft | 94 kts | 321° |
| 2026-04-15 19:40 | 43.52142 | 1.47322 | 2937 ft | 95 kts | 321° |
| 2026-04-15 19:41 | 43.52684 | 1.46760 | 2804 ft | 97 kts | 321° |
| 2026-04-15 19:41 | 43.53207 | 1.46218 | 2677 ft | 92 kts | 321° |
| 2026-04-15 19:41 | 43.53709 | 1.45699 | 2556 ft | 89 kts | 321° |
| 2026-04-15 19:41 | 43.54166 | 1.45225 | 2452 ft | 79 kts | 320° |
| 2026-04-15 19:42 | 43.54602 | 1.44773 | 2344 ft | 78 kts | 320° |
| 2026-04-15 19:42 | 43.55047 | 1.44311 | 2235 ft | 82 kts | 321° |
| 2026-04-15 19:42 | 43.55508 | 1.43834 | 2117 ft | 83 kts | 321° |
| 2026-04-15 19:42 | 43.55963 | 1.43362 | 2011 ft | 81 kts | 321° |
| 2026-04-15 19:43 | 43.56417 | 1.42890 | 1900 ft | 82 kts | 321° |
| 2026-04-15 19:43 | 43.56875 | 1.42415 | 1782 ft | 83 kts | 321° |
| 2026-04-15 19:43 | 43.57339 | 1.41935 | 1671 ft | 84 kts | 320° |
| 2026-04-15 19:43 | 43.57811 | 1.41446 | 1552 ft | 86 kts | 320° |
| 2026-04-15 19:44 | 43.58292 | 1.40946 | 1428 ft | 87 kts | 321° |
| 2026-04-15 19:44 | 43.58777 | 1.40443 | 1308 ft | 88 kts | 321° |
| 2026-04-15 19:44 | 43.59270 | 1.39931 | 1188 ft | 89 kts | 321° |
| 2026-04-15 19:44 | 43.59770 | 1.39412 | 1085 ft | 91 kts | 321° |
| 2026-04-15 19:45 | 43.60291 | 1.38878 | 951 ft | 95 kts | 322° |
| 2026-04-15 19:45 | 43.60820 | 1.38328 | 819 ft | 95 kts | 321° |
| 2026-04-15 19:45 | 43.61349 | 1.37780 | 689 ft | 95 kts | 319° |
| 2026-04-15 19:45 | 43.61879 | 1.37227 | 552 ft | 97 kts | 322° |
| 2026-04-15 19:46 | 43.62371 | 1.36713 | 488 ft | 70 kts | 323° |
| 2026-04-15 19:46 | 43.62712 | 1.36362 | 488 ft | 56 kts | 323° |
| 2026-04-15 19:46 | 43.63061 | 1.35998 | 489 ft | 81 kts | 323° |
| 2026-04-15 19:46 | 43.63559 | 1.35475 | 587 ft | 93 kts | 321° |
| 2026-04-15 19:47 | 43.64084 | 1.34930 | 791 ft | 95 kts | 321° |
| 2026-04-15 19:47 | 43.64615 | 1.34380 | 1024 ft | 99 kts | 322° |
| 2026-04-15 19:47 | 43.65205 | 1.33790 | 1237 ft | 104 kts | 322° |
| 2026-04-15 19:47 | 43.65769 | 1.33217 | 1608 ft | 97 kts | 322° |
| 2026-04-15 19:48 | 43.66307 | 1.32668 | 1929 ft | 96 kts | 322° |
| 2026-04-15 19:48 | 43.66836 | 1.32124 | 2233 ft | 95 kts | 322° |
| 2026-04-15 19:48 | 43.67185 | 1.31763 | 2421 ft | 95 kts | 322° |
| 2026-04-15 19:48 | 43.67714 | 1.31218 | 2715 ft | 95 kts | 322° |
| 2026-04-15 19:49 | 43.68246 | 1.30670 | 3002 ft | 95 kts | 322° |
| 2026-04-15 19:49 | 43.68781 | 1.30124 | 3292 ft | 96 kts | 322° |
| 2026-04-15 19:49 | 43.69319 | 1.29578 | 3590 ft | 96 kts | 322° |
| 2026-04-15 19:49 | 43.69800 | 1.28950 | 3865 ft | 97 kts | 297° |
| 2026-04-15 19:50 | 43.69807 | 1.28034 | 4163 ft | 101 kts | 251° |
| 2026-04-15 19:50 | 43.69355 | 1.27259 | 4452 ft | 106 kts | 232° |
| 2026-04-15 19:50 | 43.68834 | 1.26533 | 4744 ft | 106 kts | 232° |
| 2026-04-15 19:50 | 43.68306 | 1.25809 | 5004 ft | 111 kts | 232° |
| 2026-04-15 19:51 | 43.67712 | 1.24974 | 5006 ft | 131 kts | 232° |
| 2026-04-15 19:51 | 43.67051 | 1.24019 | 5004 ft | 143 kts | 232° |
| 2026-04-15 19:51 | 43.66354 | 1.23002 | 5008 ft | 149 kts | 232° |
| 2026-04-15 19:51 | 43.65636 | 1.21952 | 5003 ft | 151 kts | 232° |
| 2026-04-15 19:52 | 43.64910 | 1.20888 | 5008 ft | 153 kts | 232° |
| 2026-04-15 19:52 | 43.64178 | 1.19815 | 5006 ft | 153 kts | 231° |
| 2026-04-15 19:52 | 43.63446 | 1.18740 | 5007 ft | 154 kts | 231° |
| 2026-04-15 19:52 | 43.62715 | 1.17660 | 5003 ft | 154 kts | 232° |
| 2026-04-15 19:53 | 43.61986 | 1.16575 | 5006 ft | 154 kts | 231° |
| 2026-04-15 19:53 | 43.61261 | 1.15484 | 5004 ft | 154 kts | 231° |
| 2026-04-15 19:53 | 43.60537 | 1.14396 | 4998 ft | 154 kts | 231° |
| 2026-04-15 19:53 | 43.59831 | 1.13291 | 4994 ft | 153 kts | 231° |
| 2026-04-15 19:54 | 43.59128 | 1.12183 | 4994 ft | 153 kts | 231° |
| 2026-04-15 19:54 | 43.58425 | 1.11073 | 4992 ft | 154 kts | 231° |
| 2026-04-15 19:54 | 43.57724 | 1.09964 | 4998 ft | 153 kts | 231° |
| 2026-04-15 19:54 | 43.57023 | 1.08858 | 4998 ft | 153 kts | 231° |
| 2026-04-15 19:55 | 43.56325 | 1.07753 | 4992 ft | 153 kts | 231° |
| 2026-04-15 19:55 | 43.55627 | 1.06649 | 4996 ft | 153 kts | 231° |
| 2026-04-15 19:55 | 43.54929 | 1.05545 | 4992 ft | 153 kts | 231° |
| 2026-04-15 19:55 | 43.54234 | 1.04446 | 4994 ft | 144 kts | 232° |
| 2026-04-15 19:56 | 43.53622 | 1.03490 | 4994 ft | 128 kts | 231° |
| 2026-04-15 19:56 | 43.53042 | 1.02591 | 4994 ft | 124 kts | 231° |
| 2026-04-15 19:56 | 43.52474 | 1.01715 | 4992 ft | 122 kts | 231° |
| 2026-04-15 19:56 | 43.51913 | 1.00852 | 4993 ft | 120 kts | 231° |
| 2026-04-15 19:57 | 43.51357 | 0.99999 | 4988 ft | 119 kts | 231° |
| 2026-04-15 19:57 | 43.50805 | 0.99154 | 4990 ft | 119 kts | 231° |
| 2026-04-15 19:57 | 43.50199 | 0.98386 | 4993 ft | 121 kts | 208° |
| 2026-04-15 19:57 | 43.49365 | 0.98331 | 5003 ft | 126 kts | 163° |
| 2026-04-15 19:58 | 43.48635 | 0.98998 | 5017 ft | 127 kts | 142° |
| 2026-04-15 19:58 | 43.47957 | 0.99777 | 5015 ft | 127 kts | 142° |
| 2026-04-15 19:58 | 43.47280 | 1.00563 | 5014 ft | 127 kts | 141° |
| 2026-04-15 19:58 | 43.46604 | 1.01351 | 5011 ft | 127 kts | 141° |
| 2026-04-15 19:59 | 43.45930 | 1.02138 | 5010 ft | 127 kts | 141° |
| 2026-04-15 19:59 | 43.45216 | 1.02971 | 5009 ft | 143 kts | 141° |
| 2026-04-15 19:59 | 43.44424 | 1.03886 | 5012 ft | 153 kts | 141° |
| 2026-04-15 19:59 | 43.43593 | 1.04843 | 5011 ft | 158 kts | 141° |
| 2026-04-15 20:00 | 43.42752 | 1.05809 | 5011 ft | 161 kts | 141° |
| 2026-04-15 20:00 | 43.41888 | 1.06796 | 5016 ft | 162 kts | 141° |
| 2026-04-15 20:00 | 43.41002 | 1.07802 | 5015 ft | 163 kts | 141° |
| 2026-04-15 20:00 | 43.40141 | 1.08781 | 5016 ft | 163 kts | 141° |
| 2026-04-15 20:01 | 43.39264 | 1.09778 | 5015 ft | 163 kts | 141° |
| 2026-04-15 20:01 | 43.38387 | 1.10774 | 5015 ft | 163 kts | 141° |
| 2026-04-15 20:01 | 43.37510 | 1.11768 | 5016 ft | 163 kts | 141° |
| 2026-04-15 20:01 | 43.36635 | 1.12760 | 5019 ft | 163 kts | 141° |
| 2026-04-15 20:02 | 43.35757 | 1.13756 | 5020 ft | 164 kts | 142° |
| 2026-04-15 20:02 | 43.34881 | 1.14752 | 5022 ft | 164 kts | 140° |
| 2026-04-15 20:02 | 43.34333 | 1.16112 | 5012 ft | 166 kts | 99° |
| 2026-04-15 20:02 | 43.34208 | 1.17704 | 4914 ft | 171 kts | 92° |
| 2026-04-15 20:03 | 43.34131 | 1.19351 | 4783 ft | 174 kts | 91° |
| 2026-04-15 20:03 | 43.34056 | 1.21020 | 4653 ft | 176 kts | 91° |
| 2026-04-15 20:03 | 43.33981 | 1.22699 | 4520 ft | 176 kts | 91° |
| 2026-04-15 20:03 | 43.33905 | 1.24381 | 4391 ft | 176 kts | 91° |
| 2026-04-15 20:04 | 43.33829 | 1.26063 | 4263 ft | 176 kts | 91° |
| 2026-04-15 20:04 | 43.33752 | 1.27747 | 4133 ft | 176 kts | 91° |
| 2026-04-15 20:04 | 43.33674 | 1.29428 | 4016 ft | 176 kts | 91° |
| 2026-04-15 20:04 | 43.33598 | 1.31076 | 4012 ft | 170 kts | 91° |
| 2026-04-15 20:05 | 43.33525 | 1.32675 | 4014 ft | 167 kts | 91° |
| 2026-04-15 20:05 | 43.33452 | 1.34258 | 4012 ft | 165 kts | 91° |
| 2026-04-15 20:05 | 43.33380 | 1.35830 | 4015 ft | 164 kts | 91° |
| 2026-04-15 20:05 | 43.33306 | 1.37394 | 4014 ft | 164 kts | 91° |
| 2026-04-15 20:06 | 43.33232 | 1.38958 | 4007 ft | 164 kts | 91° |
| 2026-04-15 20:06 | 43.33159 | 1.40519 | 4006 ft | 164 kts | 91° |
| 2026-04-15 20:06 | 43.33087 | 1.42083 | 4006 ft | 164 kts | 91° |
| 2026-04-15 20:06 | 43.33273 | 1.43587 | 3996 ft | 159 kts | 56° |
| 2026-04-15 20:07 | 43.33967 | 1.44741 | 4004 ft | 156 kts | 43° |
| 2026-04-15 20:07 | 43.34721 | 1.45815 | 4004 ft | 156 kts | 41° |
| 2026-04-15 20:07 | 43.35480 | 1.46884 | 4004 ft | 156 kts | 41° |
| 2026-04-15 20:07 | 43.36239 | 1.47953 | 4004 ft | 156 kts | 42° |
| 2026-04-15 20:08 | 43.37128 | 1.48777 | 4001 ft | 153 kts | 23° |
| 2026-04-15 20:08 | 43.38081 | 1.49422 | 4003 ft | 153 kts | 22° |
| 2026-04-15 20:08 | 43.39060 | 1.49975 | 4001 ft | 151 kts | 12° |
| 2026-04-15 20:08 | 43.40077 | 1.50334 | 4002 ft | 151 kts | 10° |
| 2026-04-15 20:09 | 43.41096 | 1.50688 | 4003 ft | 151 kts | 11° |
| 2026-04-15 20:09 | 43.42112 | 1.51058 | 4001 ft | 151 kts | 11° |
| 2026-04-15 20:09 | 43.43123 | 1.51432 | 4002 ft | 150 kts | 11° |
| 2026-04-15 20:09 | 43.44132 | 1.51807 | 4001 ft | 150 kts | 11° |
| 2026-04-15 20:10 | 43.45128 | 1.52178 | 4001 ft | 150 kts | 11° |
| 2026-04-15 20:10 | 43.46142 | 1.52490 | 4000 ft | 149 kts | 1° |
| 2026-04-15 20:10 | 43.47147 | 1.52306 | 3998 ft | 146 kts | 338° |
| 2026-04-15 20:10 | 43.48031 | 1.51603 | 3868 ft | 151 kts | 322° |
| 2026-04-15 20:11 | 43.48899 | 1.50708 | 3623 ft | 159 kts | 322° |
| 2026-04-15 20:11 | 43.49784 | 1.49791 | 3357 ft | 155 kts | 322° |
| 2026-04-15 20:11 | 43.50619 | 1.48926 | 3083 ft | 147 kts | 322° |
| 2026-04-15 20:11 | 43.51377 | 1.48141 | 2995 ft | 123 kts | 322° |
| 2026-04-15 20:12 | 43.52015 | 1.47478 | 2937 ft | 110 kts | 322° |
| 2026-04-15 20:12 | 43.52598 | 1.46872 | 2804 ft | 99 kts | 322° |
| 2026-04-15 20:12 | 43.53131 | 1.46318 | 2677 ft | 94 kts | 321° |
| 2026-04-15 20:12 | 43.53642 | 1.45787 | 2554 ft | 90 kts | 321° |
| 2026-04-15 20:13 | 43.54142 | 1.45268 | 2434 ft | 90 kts | 321° |
| 2026-04-15 20:13 | 43.54642 | 1.44749 | 2312 ft | 90 kts | 322° |
| 2026-04-15 20:13 | 43.55145 | 1.44229 | 2192 ft | 91 kts | 321° |
| 2026-04-15 20:13 | 43.55654 | 1.43700 | 2065 ft | 92 kts | 321° |
| 2026-04-15 20:14 | 43.56163 | 1.43172 | 1942 ft | 92 kts | 321° |
| 2026-04-15 20:14 | 43.56676 | 1.42639 | 1816 ft | 93 kts | 321° |
| 2026-04-15 20:14 | 43.57193 | 1.42102 | 1690 ft | 94 kts | 321° |
| 2026-04-15 20:14 | 43.57717 | 1.41559 | 1558 ft | 95 kts | 321° |
| 2026-04-15 20:15 | 43.58246 | 1.41010 | 1426 ft | 95 kts | 321° |
| 2026-04-15 20:15 | 43.58782 | 1.40452 | 1295 ft | 99 kts | 321° |
| 2026-04-15 20:15 | 43.59342 | 1.39869 | 1158 ft | 102 kts | 321° |
| 2026-04-15 20:15 | 43.59922 | 1.39267 | 1018 ft | 106 kts | 321° |
| 2026-04-15 20:16 | 43.60511 | 1.38653 | 877 ft | 105 kts | 320° |
| 2026-04-15 20:16 | 43.61088 | 1.38048 | 743 ft | 103 kts | 320° |
| 2026-04-15 20:16 | 43.61657 | 1.37458 | 632 ft | 97 kts | 321° |
| 2026-04-15 20:16 | 43.62171 | 1.36922 | 489 ft | 80 kts | 321° |
| 2026-04-15 20:17 | 43.62623 | 1.36450 | 499 ft | 95 kts | 321° |
| 2026-04-15 20:17 | 43.63184 | 1.35869 | 639 ft | 104 kts | 322° |
| 2026-04-15 20:17 | 43.63754 | 1.35279 | 918 ft | 98 kts | 325° |
| 2026-04-15 20:17 | 43.64314 | 1.34814 | 1026 ft | 92 kts | 326° |
| 2026-04-15 20:18 | 43.64868 | 1.34322 | 1044 ft | 97 kts | 322° |
| 2026-04-15 20:18 | 43.65440 | 1.33794 | 1065 ft | 100 kts | 322° |
| 2026-04-15 20:18 | 43.66038 | 1.33295 | 1108 ft | 102 kts | 323° |
| 2026-04-15 20:18 | 43.66633 | 1.32733 | 1111 ft | 106 kts | 319° |
| 2026-04-15 20:19 | 43.67235 | 1.32134 | 1134 ft | 106 kts | 321° |
| 2026-04-15 20:19 | 43.67841 | 1.31521 | 1104 ft | 110 kts | 317° |